createdAt,value
2023-05-16T00:01:04.911Z,11.90
2023-05-16T00:03:33.324Z,12.45
2023-05-16T00:06:01.805Z,11.25
2023-05-16T00:08:30.954Z,11.63
2023-05-16T00:10:59.151Z,12.70
2023-05-16T00:15:35.137Z,11.80
2023-05-16T00:18:03.676Z,10.45
2023-05-16T00:20:31.876Z,12.25
2023-05-16T00:23:00.196Z,12.80
2023-05-16T00:25:28.637Z,11.30
2023-05-16T00:27:56.779Z,11.93
2023-05-16T00:30:25.261Z,11.65
2023-05-16T00:32:56.403Z,11.40
2023-05-16T00:35:25.079Z,10.02
2023-05-16T00:37:53.291Z,11.98
2023-05-16T00:40:22.972Z,11.90
2023-05-16T00:42:51.173Z,13.50
2023-05-16T00:45:20.735Z,17.05
2023-05-16T00:47:49.099Z,16.58
2023-05-16T00:50:18.466Z,18.13
2023-05-16T00:52:49.960Z,19.30
2023-05-16T00:55:18.485Z,20.25
2023-05-16T00:57:46.977Z,18.98
2023-05-16T01:00:15.298Z,20.45
2023-05-16T01:02:44.345Z,19.05
2023-05-16T01:05:12.752Z,17.73
2023-05-16T01:07:41.186Z,18.38
2023-05-16T01:10:10.076Z,18.85
2023-05-16T01:12:48.447Z,21.92
2023-05-16T01:15:30.007Z,20.92
2023-05-16T01:18:11.020Z,22.55
2023-05-16T01:20:57.247Z,19.95
2023-05-16T01:23:25.582Z,21.17
2023-05-16T01:26:32.530Z,18.42
2023-05-16T01:29:02.590Z,16.05
2023-05-16T01:31:30.993Z,13.68
2023-05-16T01:33:59.290Z,12.15
2023-05-16T01:36:53.520Z,13.07
2023-05-16T01:39:36.971Z,10.85
2023-05-16T01:42:06.309Z,9.35
2023-05-16T01:44:47.234Z,11.82
2023-05-16T01:47:18.258Z,10.20
2023-05-16T01:50:09.177Z,10.83
2023-05-16T01:53:06.980Z,12.05
2023-05-16T01:55:47.611Z,12.95
2023-05-16T01:58:18.053Z,14.10
2023-05-16T02:00:46.330Z,13.52
2023-05-16T02:03:14.825Z,13.48
2023-05-16T02:05:43.038Z,11.27
2023-05-16T02:10:43.512Z,10.98
2023-05-16T02:13:12.175Z,12.02
2023-05-16T02:15:40.440Z,12.82
2023-05-16T02:18:08.960Z,11.95
2023-05-16T02:20:38.304Z,10.73
2023-05-16T02:23:06.495Z,12.20
2023-05-16T02:25:34.813Z,11.80
2023-05-16T02:28:02.855Z,10.52
2023-05-16T02:30:31.181Z,12.43
2023-05-16T02:32:59.383Z,11.13
2023-05-16T02:35:27.958Z,12.00
2023-05-16T02:37:57.647Z,10.85
2023-05-16T02:40:25.847Z,11.27
2023-05-16T02:42:54.134Z,11.23
2023-05-16T02:45:22.379Z,10.07
2023-05-16T02:47:52.068Z,9.77
2023-05-16T02:50:20.326Z,11.55
2023-05-16T02:52:48.772Z,10.73
2023-05-16T02:55:36.106Z,9.18
2023-05-16T02:58:04.521Z,10.25
2023-05-16T03:00:32.979Z,10.35
2023-05-16T03:03:01.140Z,10.38
2023-05-16T03:05:30.371Z,9.55
2023-05-16T03:08:00.303Z,10.13
2023-05-16T03:10:28.665Z,9.13
2023-05-16T03:12:56.728Z,9.07
2023-05-16T03:15:25.342Z,10.65
2023-05-16T03:17:53.707Z,10.43
2023-05-16T03:20:22.076Z,9.73
2023-05-16T03:22:51.259Z,8.85
2023-05-16T03:25:19.553Z,10.02
2023-05-16T03:27:47.711Z,9.05
2023-05-16T03:30:17.011Z,8.85
2023-05-16T03:32:47.004Z,9.73
2023-05-16T03:35:15.269Z,8.27
2023-05-16T03:37:43.929Z,9.68
2023-05-16T03:40:12.619Z,9.93
2023-05-16T03:42:40.893Z,9.48
2023-05-16T03:45:09.666Z,9.00
2023-05-16T03:47:37.780Z,8.52
2023-05-16T03:50:07.446Z,9.38
2023-05-16T03:52:35.675Z,8.52
2023-05-16T03:55:04.111Z,8.45
2023-05-16T03:57:33.236Z,7.47
2023-05-16T04:00:01.447Z,8.13
2023-05-16T04:02:42.551Z,7.88
2023-05-16T04:05:12.023Z,7.15
2023-05-16T04:07:40.990Z,7.93
2023-05-16T04:10:12.528Z,7.03
2023-05-16T04:12:40.846Z,7.47
2023-05-16T04:15:09.649Z,8.18
2023-05-16T04:17:38.202Z,7.47
2023-05-16T04:20:07.096Z,6.95
2023-05-16T04:22:35.311Z,6.53
2023-05-16T04:25:03.593Z,7.10
2023-05-16T04:27:31.729Z,7.22
2023-05-16T04:29:59.993Z,7.40
2023-05-16T04:32:28.165Z,7.05
2023-05-16T04:34:56.337Z,7.65
2023-05-16T04:37:24.800Z,6.22
2023-05-16T04:39:52.869Z,6.57
2023-05-16T04:42:21.229Z,6.95
2023-05-16T04:44:49.333Z,6.85
2023-05-16T04:47:17.616Z,7.50
2023-05-16T04:49:45.717Z,6.68
2023-05-16T04:52:13.933Z,6.88
2023-05-16T04:54:42.182Z,6.90
2023-05-16T04:57:10.372Z,5.93
2023-05-16T04:59:38.646Z,5.75
2023-05-16T05:02:06.744Z,6.15
2023-05-16T05:04:35.151Z,6.25
2023-05-16T05:07:03.352Z,6.07
2023-05-16T05:09:31.661Z,5.97
2023-05-16T05:11:59.820Z,5.72
2023-05-16T05:14:28.118Z,5.40
2023-05-16T05:16:56.442Z,6.20
2023-05-16T05:19:24.714Z,6.25
2023-05-16T05:21:53.019Z,5.82
2023-05-16T05:24:21.180Z,4.95
2023-05-16T05:26:49.355Z,5.82
2023-05-16T05:29:17.935Z,6.65
2023-05-16T05:31:46.204Z,6.70
2023-05-16T05:34:14.518Z,6.60
2023-05-16T05:36:42.776Z,6.05
2023-05-16T05:39:11.410Z,6.10
2023-05-16T05:41:40.693Z,6.38
2023-05-16T05:44:09.130Z,6.80
2023-05-16T05:46:37.392Z,5.63
2023-05-16T05:49:06.109Z,7.38
2023-05-16T05:51:34.387Z,6.85
2023-05-16T05:54:03.169Z,7.05
2023-05-16T05:56:31.416Z,6.43
2023-05-16T05:58:59.628Z,5.60
2023-05-16T06:01:28.075Z,6.65
2023-05-16T06:03:56.206Z,8.10
2023-05-16T06:06:24.360Z,9.25
2023-05-16T06:08:52.802Z,11.55
2023-05-16T06:11:20.944Z,12.52
2023-05-16T06:15:31.683Z,10.57
2023-05-16T06:18:00.096Z,12.80
2023-05-16T06:20:28.348Z,9.85
2023-05-16T06:22:56.726Z,9.43
2023-05-16T06:25:24.891Z,9.05
2023-05-16T06:27:53.208Z,9.95
2023-05-16T06:30:21.510Z,9.18
2023-05-16T06:32:49.803Z,9.63
2023-05-16T06:35:17.993Z,9.15
2023-05-16T06:37:46.250Z,10.48
2023-05-16T06:40:14.622Z,10.57
2023-05-16T06:42:42.841Z,9.73
2023-05-16T06:45:13.307Z,10.60
2023-05-16T06:47:41.801Z,9.30
2023-05-16T06:50:10.304Z,11.52
2023-05-16T06:52:38.644Z,13.07
2023-05-16T06:55:11.709Z,12.32
2023-05-16T06:57:40.216Z,12.70
2023-05-16T07:00:08.854Z,12.38
2023-05-16T07:02:37.324Z,14.63
2023-05-16T07:05:05.983Z,14.27
2023-05-16T07:07:34.123Z,16.52
2023-05-16T07:10:02.614Z,14.90
2023-05-16T07:12:30.838Z,15.90
2023-05-16T07:14:58.969Z,14.32
2023-05-16T07:17:27.454Z,14.60
2023-05-16T07:19:55.682Z,14.65
2023-05-16T07:22:24.238Z,12.90
2023-05-16T07:24:52.364Z,13.25
2023-05-16T07:27:23.403Z,12.48
2023-05-16T07:29:51.949Z,13.25
2023-05-16T07:32:20.102Z,11.25
2023-05-16T07:34:48.465Z,10.10
2023-05-16T07:37:16.937Z,11.43
2023-05-16T07:39:45.255Z,10.98
2023-05-16T07:42:13.955Z,10.57
2023-05-16T07:44:42.329Z,10.20
2023-05-16T07:47:10.594Z,9.98
2023-05-16T07:49:38.870Z,10.30
2023-05-16T07:52:07.608Z,9.60
2023-05-16T07:54:36.502Z,9.85
2023-05-16T07:57:04.911Z,10.35
2023-05-16T07:59:33.601Z,9.02
2023-05-16T08:02:01.801Z,8.02
2023-05-16T08:04:30.247Z,7.85
2023-05-16T08:06:58.711Z,7.90
2023-05-16T08:09:26.916Z,7.55
2023-05-16T08:11:58.388Z,6.80
2023-05-16T08:14:26.700Z,7.15
2023-05-16T08:16:55.441Z,6.90
2023-05-16T08:19:23.711Z,6.22
2023-05-16T08:21:52.551Z,5.88
2023-05-16T08:24:21.032Z,7.47
2023-05-16T08:26:49.189Z,7.30
2023-05-16T08:29:17.476Z,7.03
2023-05-16T08:31:45.959Z,7.63
2023-05-16T08:34:14.201Z,6.60
2023-05-16T08:36:42.551Z,7.35
2023-05-16T08:39:11.086Z,7.50
2023-05-16T08:41:39.716Z,7.80
2023-05-16T08:44:09.188Z,6.72
2023-05-16T08:46:39.401Z,7.32
2023-05-16T08:49:09.194Z,6.97
2023-05-16T08:51:38.786Z,6.47
2023-05-16T08:54:15.813Z,5.97
2023-05-16T08:56:45.664Z,6.68
2023-05-16T08:59:14.469Z,7.63
2023-05-16T09:01:43.016Z,7.13
2023-05-16T09:04:11.962Z,7.32
2023-05-16T09:06:40.234Z,7.25
2023-05-16T09:09:08.768Z,6.93
2023-05-16T09:11:37.307Z,6.55
2023-05-16T09:14:06.341Z,7.97
2023-05-16T09:16:34.607Z,6.93
2023-05-16T09:19:03.295Z,6.03
2023-05-16T09:21:35.655Z,6.07
2023-05-16T09:24:08.302Z,6.28
2023-05-16T09:26:38.598Z,6.85
2023-05-16T09:29:13.645Z,6.05
2023-05-16T09:31:42.134Z,6.78
2023-05-16T09:34:10.898Z,6.97
2023-05-16T09:36:40.648Z,5.60
2023-05-16T09:39:10.388Z,5.70
2023-05-16T09:41:38.648Z,5.80
2023-05-16T09:44:07.395Z,5.68
2023-05-16T09:46:36.628Z,5.43
2023-05-16T09:49:04.930Z,5.80
2023-05-16T09:51:33.148Z,5.57
2023-05-16T09:54:01.377Z,4.68
2023-05-16T09:56:29.837Z,5.57
2023-05-16T09:59:00.320Z,4.95
2023-05-16T10:01:28.726Z,5.65
2023-05-16T10:03:57.071Z,6.28
2023-05-16T10:06:26.555Z,6.35
2023-05-16T10:08:54.924Z,6.10
2023-05-16T10:11:26.248Z,6.55
2023-05-16T10:13:56.991Z,6.50
2023-05-16T10:16:26.257Z,5.22
2023-05-16T10:18:55.643Z,6.72
2023-05-16T10:21:26.447Z,6.63
2023-05-16T10:23:57.630Z,6.00
2023-05-16T10:26:26.849Z,5.07
2023-05-16T10:28:55.313Z,6.15
2023-05-16T10:31:24.433Z,6.72
2023-05-16T10:33:53.705Z,6.72
2023-05-16T10:36:22.106Z,6.85
2023-05-16T10:38:52.480Z,5.93
2023-05-16T10:41:21.740Z,8.85
2023-05-16T10:44:00.402Z,8.45
2023-05-16T10:46:29.220Z,6.53
2023-05-16T10:48:58.748Z,10.60
2023-05-16T10:51:38.954Z,8.98
2023-05-16T10:54:11.834Z,8.50
2023-05-16T10:56:43.029Z,6.75
2023-05-16T10:59:26.758Z,7.35
2023-05-16T11:01:57.772Z,8.00
2023-05-16T11:04:46.757Z,7.32
2023-05-16T11:07:17.310Z,5.28
2023-05-16T11:11:49.095Z,5.78
2023-05-16T11:14:29.785Z,4.82
2023-05-16T11:17:10.189Z,7.47
2023-05-16T11:19:44.258Z,9.00
2023-05-16T11:22:21.394Z,12.63
2023-05-16T11:25:12.477Z,7.60
2023-05-16T11:27:45.979Z,6.88
2023-05-16T11:30:19.730Z,6.90
2023-05-16T11:32:49.164Z,7.03
2023-05-16T11:35:18.528Z,7.10
2023-05-16T11:37:48.203Z,7.78
2023-05-16T11:40:16.602Z,6.45
2023-05-16T11:42:47.041Z,5.10
2023-05-16T11:45:20.771Z,8.50
2023-05-16T11:47:50.360Z,7.25
2023-05-16T11:50:20.989Z,7.15
2023-05-16T11:52:56.388Z,7.28
2023-05-16T11:55:40.284Z,6.72
2023-05-16T11:58:09.725Z,6.28
2023-05-16T12:00:49.494Z,6.30
2023-05-16T12:03:23.101Z,5.43
2023-05-16T12:05:55.557Z,6.72
2023-05-16T12:08:24.184Z,6.68
2023-05-16T12:10:54.115Z,7.18
2023-05-16T12:13:24.700Z,9.52
2023-05-16T12:15:53.508Z,6.13
2023-05-16T12:18:22.399Z,8.38
2023-05-16T12:20:51.508Z,7.43
2023-05-16T12:23:19.632Z,5.95
2023-05-16T12:25:49.522Z,6.32
2023-05-16T12:28:18.034Z,7.07
2023-05-16T12:30:46.293Z,8.52
2023-05-16T12:33:16.350Z,6.03
2023-05-16T12:35:47.405Z,8.88
2023-05-16T12:38:17.023Z,7.20
2023-05-16T12:40:45.766Z,7.88
2023-05-16T12:43:19.929Z,8.02
2023-05-16T12:45:58.015Z,8.13
2023-05-16T12:48:34.190Z,6.85
2023-05-16T12:51:20.009Z,6.68
2023-05-16T12:54:05.610Z,6.85
2023-05-16T12:56:43.714Z,5.78
2023-05-16T12:59:12.126Z,6.32
2023-05-16T13:01:40.268Z,6.20
2023-05-16T13:04:09.201Z,5.43
2023-05-16T13:06:55.751Z,7.30
2023-05-16T13:09:27.167Z,5.75
2023-05-16T13:11:56.810Z,9.00
2023-05-16T13:14:24.919Z,7.85
2023-05-16T13:16:53.310Z,5.05
2023-05-16T13:24:01.399Z,6.90
2023-05-16T13:26:29.838Z,7.07
2023-05-16T13:28:57.952Z,6.63
2023-05-16T13:38:25.478Z,8.68
2023-05-16T13:40:53.744Z,9.32
2023-05-16T13:43:21.878Z,7.38
2023-05-16T13:45:50.233Z,7.68
2023-05-16T13:48:18.414Z,7.93
2023-05-16T13:50:47.110Z,8.88
2023-05-16T13:53:15.654Z,7.38
2023-05-16T13:55:43.863Z,8.48
2023-05-16T13:58:12.045Z,6.20
2023-05-16T14:00:50.645Z,7.15
2023-05-16T14:03:19.285Z,8.00
2023-05-16T14:05:47.636Z,7.85
2023-05-16T14:08:15.727Z,9.32
2023-05-16T14:10:44.099Z,9.25
2023-05-16T14:13:12.340Z,8.98
2023-05-16T14:15:40.487Z,10.15
2023-05-16T14:18:11.412Z,14.93
2023-05-16T14:20:39.886Z,9.10
2023-05-16T14:23:08.138Z,9.77
2023-05-16T14:25:36.349Z,13.10
2023-05-16T14:28:04.701Z,8.85
2023-05-16T14:30:33.156Z,10.85
2023-05-16T14:33:01.557Z,7.45
2023-05-16T14:35:30.259Z,12.18
2023-05-16T14:37:58.921Z,12.05
2023-05-16T14:40:36.330Z,17.35
2023-05-16T14:43:04.641Z,9.13
2023-05-16T14:45:34.345Z,11.93
2023-05-16T14:48:08.457Z,10.52
2023-05-16T14:50:36.927Z,24.38
2023-05-16T14:53:05.284Z,24.90
2023-05-16T14:55:33.441Z,18.10
2023-05-16T14:58:01.794Z,26.00
2023-05-16T15:00:30.400Z,20.27
2023-05-16T15:02:58.907Z,14.80
2023-05-16T15:05:27.298Z,26.90
2023-05-16T15:07:55.385Z,25.92
2023-05-16T15:10:23.816Z,9.60
2023-05-16T15:12:52.092Z,9.50
2023-05-16T15:15:20.321Z,10.98
2023-05-16T15:17:48.682Z,18.30
2023-05-16T15:20:16.961Z,11.30
2023-05-16T15:22:45.201Z,9.63
2023-05-16T15:25:13.415Z,9.10
2023-05-16T15:27:41.580Z,6.65
2023-05-16T15:30:10.228Z,7.22
2023-05-16T15:32:38.381Z,4.47
2023-05-16T15:35:07.110Z,4.38
2023-05-16T15:37:35.227Z,3.30
2023-05-16T15:40:03.643Z,3.92
2023-05-16T15:42:31.958Z,4.35
2023-05-16T15:45:00.059Z,5.25
2023-05-16T15:47:28.374Z,4.13
2023-05-16T15:49:56.685Z,4.43
2023-05-16T15:52:24.838Z,5.82
2023-05-16T15:54:53.303Z,3.92
2023-05-16T15:57:21.540Z,4.15
2023-05-16T15:59:49.762Z,4.85
2023-05-16T16:02:18.038Z,4.70
2023-05-16T16:04:46.300Z,7.68
2023-05-16T16:07:14.506Z,4.10
2023-05-16T16:09:42.699Z,5.15
2023-05-16T16:12:11.035Z,5.38
2023-05-16T16:14:39.114Z,4.43
2023-05-16T16:17:07.327Z,5.45
2023-05-16T16:19:35.853Z,3.05
2023-05-16T16:22:03.965Z,3.58
2023-05-16T16:24:32.306Z,4.35
2023-05-16T16:27:00.473Z,8.15
2023-05-16T16:29:28.873Z,4.18
2023-05-16T16:31:57.297Z,4.78
2023-05-16T16:34:25.629Z,3.50
2023-05-16T16:36:53.969Z,4.28
2023-05-16T16:39:22.261Z,5.20
2023-05-16T16:41:50.566Z,3.45
2023-05-16T16:44:20.409Z,4.93
2023-05-16T16:46:48.695Z,2.65
2023-05-16T16:49:17.121Z,3.67
2023-05-16T16:51:45.250Z,5.43
2023-05-16T16:54:13.553Z,2.58
2023-05-16T16:56:41.991Z,3.45
2023-05-16T16:59:10.471Z,3.47
2023-05-16T17:01:38.622Z,3.45
2023-05-16T17:04:06.917Z,4.90
2023-05-16T17:06:35.398Z,6.32
2023-05-16T17:09:03.779Z,5.25
2023-05-16T17:11:32.145Z,6.18
2023-05-16T17:14:00.518Z,7.07
2023-05-16T17:16:29.077Z,6.30
2023-05-16T17:18:57.305Z,3.08
2023-05-16T17:21:25.789Z,5.25
2023-05-16T17:23:54.424Z,5.93
2023-05-16T17:26:22.618Z,4.80
2023-05-16T17:28:53.702Z,4.65
2023-05-16T17:31:22.119Z,5.00
2023-05-16T17:33:50.877Z,5.88
2023-05-16T17:36:19.200Z,8.25
2023-05-16T17:38:48.046Z,6.60
2023-05-16T17:41:16.472Z,3.92
2023-05-16T17:43:45.557Z,4.15
2023-05-16T17:46:14.160Z,4.15
2023-05-16T17:48:42.304Z,3.45
2023-05-16T17:51:10.609Z,7.72
2023-05-16T17:53:39.034Z,12.93
2023-05-16T17:56:07.130Z,120.50
2023-05-16T17:58:35.432Z,131.52
2023-05-16T18:01:04.075Z,42.35
2023-05-16T18:03:32.197Z,18.85
2023-05-16T18:06:00.802Z,7.13
2023-05-16T18:08:31.968Z,6.75
2023-05-16T18:11:00.522Z,5.63
2023-05-16T18:13:28.731Z,7.45
2023-05-16T18:15:56.996Z,5.43
2023-05-16T18:18:25.368Z,8.88
2023-05-16T18:20:53.746Z,5.40
2023-05-16T18:23:22.076Z,4.68
2023-05-16T18:25:50.371Z,5.20
2023-05-16T18:28:18.475Z,6.22
2023-05-16T18:30:46.801Z,4.78
2023-05-16T18:33:15.128Z,6.57
2023-05-16T18:35:43.494Z,8.32
2023-05-16T18:38:20.247Z,5.70
2023-05-16T18:40:57.572Z,7.82
2023-05-16T18:43:25.942Z,10.68
2023-05-16T18:45:54.398Z,9.18
2023-05-16T18:48:22.723Z,7.07
2023-05-16T18:50:51.096Z,11.32
2023-05-16T18:53:19.443Z,9.70
2023-05-16T18:55:47.574Z,9.95
2023-05-16T18:58:16.253Z,10.15
2023-05-16T19:00:44.683Z,13.05
2023-05-16T19:03:12.959Z,27.73
2023-05-16T19:05:41.527Z,84.88
2023-05-16T19:08:09.848Z,44.75
2023-05-16T19:10:38.361Z,29.08
2023-05-16T19:13:07.242Z,56.25
2023-05-16T19:15:36.881Z,35.40
2023-05-16T19:18:05.765Z,21.80
2023-05-16T19:20:35.829Z,20.80
2023-05-16T19:23:04.305Z,23.42
2023-05-16T19:25:34.885Z,24.70
2023-05-16T19:28:03.347Z,22.60
2023-05-16T19:30:31.682Z,33.67
2023-05-16T19:33:00.452Z,96.10
2023-05-16T19:35:29.293Z,122.13
2023-05-16T19:37:58.318Z,58.25
2023-05-16T19:40:27.021Z,30.95
2023-05-16T19:42:55.937Z,43.70
2023-05-16T19:45:24.551Z,77.22
2023-05-16T19:47:53.167Z,49.13
2023-05-16T19:50:22.567Z,28.75
2023-05-16T19:52:51.149Z,24.92
2023-05-16T19:55:19.704Z,15.93
2023-05-16T19:57:48.276Z,14.43
2023-05-16T20:00:16.940Z,12.68
2023-05-16T20:02:45.434Z,8.80
2023-05-16T20:05:13.862Z,14.90
2023-05-16T20:07:42.462Z,13.07
2023-05-16T20:10:11.305Z,11.32
2023-05-16T20:12:39.733Z,16.02
2023-05-16T20:15:08.718Z,16.42
2023-05-16T20:17:37.412Z,14.85
2023-05-16T20:20:07.168Z,15.95
2023-05-16T20:22:36.536Z,13.93
2023-05-16T20:25:07.960Z,11.65
2023-05-16T20:27:36.858Z,13.10
2023-05-16T20:30:06.258Z,11.70
2023-05-16T20:32:34.993Z,17.73
2023-05-16T20:35:04.078Z,17.73
2023-05-16T20:37:34.015Z,21.42
2023-05-16T20:40:02.512Z,21.90
2023-05-16T20:42:30.926Z,24.15
2023-05-16T20:44:59.300Z,20.38
2023-05-16T20:47:28.360Z,20.95
2023-05-16T20:52:50.857Z,26.10
2023-05-16T20:55:21.272Z,27.45
2023-05-16T20:57:50.625Z,31.33
2023-05-16T21:00:18.999Z,29.02
2023-05-16T21:02:47.628Z,28.70
2023-05-16T21:05:25.137Z,26.88
2023-05-16T21:07:54.653Z,32.22
2023-05-16T21:10:23.148Z,33.88
2023-05-16T21:12:51.610Z,32.40
2023-05-16T21:15:22.194Z,26.60
2023-05-16T21:17:51.705Z,31.35
2023-05-16T21:20:20.234Z,36.90
2023-05-16T21:22:48.503Z,20.83
2023-05-16T21:25:16.971Z,26.17
2023-05-16T21:27:45.324Z,42.15
2023-05-16T21:30:14.126Z,46.15
2023-05-16T21:32:42.570Z,52.00
2023-05-16T21:35:10.937Z,50.28
2023-05-16T21:37:39.193Z,32.60
2023-05-16T21:40:08.340Z,28.63
2023-05-16T21:42:37.281Z,25.77
2023-05-16T21:45:05.913Z,30.13
2023-05-16T21:47:35.970Z,28.08
2023-05-16T21:50:04.477Z,17.75
2023-05-16T21:52:32.696Z,9.40
2023-05-16T21:55:01.112Z,10.00
2023-05-16T21:57:29.385Z,10.85
2023-05-16T21:59:57.569Z,17.35
2023-05-16T22:04:49.449Z,14.95
2023-05-16T22:07:17.809Z,16.45
2023-05-16T22:09:46.526Z,15.43
2023-05-16T22:12:14.992Z,17.55
2023-05-16T22:14:43.378Z,16.13
2023-05-16T22:17:11.727Z,18.83
2023-05-16T22:19:40.045Z,17.23
2023-05-16T22:22:08.615Z,14.77
2023-05-16T22:24:37.121Z,12.20
2023-05-16T22:27:05.796Z,9.57
2023-05-16T22:29:34.166Z,7.43
2023-05-16T22:32:02.429Z,9.25
2023-05-16T22:34:30.684Z,9.18
2023-05-16T22:36:59.038Z,10.57
2023-05-16T22:39:27.295Z,12.77
2023-05-16T22:41:55.596Z,13.68
2023-05-16T22:44:23.872Z,14.63
2023-05-16T22:46:52.172Z,14.07
2023-05-16T22:49:20.590Z,14.95
2023-05-16T22:51:48.861Z,18.77
2023-05-16T22:54:17.454Z,18.40
2023-05-16T22:56:45.541Z,18.15
2023-05-16T22:59:13.765Z,19.73
2023-05-16T23:01:42.241Z,15.15
2023-05-16T23:04:10.595Z,15.02
2023-05-16T23:06:39.097Z,19.75
2023-05-16T23:09:07.342Z,17.98
2023-05-16T23:11:35.434Z,23.30
2023-05-16T23:14:03.721Z,26.08
2023-05-16T23:16:31.970Z,15.18
2023-05-16T23:20:19.750Z,16.60
2023-05-16T23:22:47.955Z,18.20
2023-05-16T23:25:16.161Z,22.58
2023-05-16T23:27:44.536Z,33.30
2023-05-16T23:30:13.009Z,33.42
2023-05-16T23:32:41.554Z,36.75
2023-05-16T23:35:13.016Z,36.97
2023-05-16T23:37:41.494Z,40.83
2023-05-16T23:40:10.438Z,34.85
2023-05-16T23:42:38.900Z,34.05
2023-05-16T23:45:07.703Z,32.63
2023-05-16T23:47:36.387Z,24.35
2023-05-16T23:50:05.197Z,20.10
2023-05-16T23:52:33.811Z,10.77
2023-05-16T23:55:02.448Z,13.75
2023-05-16T23:57:30.620Z,17.30
2023-05-16T23:59:58.905Z,28.75
